الصفحة الرئيسية
METAR-TAF:

METAR-TAF

مطار :

مطار شانغي سنغافورة

سنغافورة, سنغافورة

دائرة عرض: 01-22N, خط طول: 103-59E, ارتفاع: 5 متر

مراقبة الطقس الحالي

تاريخ ووقت الإصدار 19 دقيقة قبل الساعة 23:00UTC
ريح 3 عقدة من الجنوب
درجة الحرارة 27°درجة مئوية
الرطوبة 89%
ضغط 1009 hPa
الرؤية 10 كم أو أكثر
غيوم متفرقة على ارتفاع 1500 قدم
غيوم مفككة على ارتفاع 30000 قدم

METAR: WSSS 252300Z 17003KT 9999 SCT015 BKN300 27/25 Q1009 NOSIG

زمن: 07:19 (23:19 UTC)

توقعات

تاريخ ووقت الإصدار 6ساعات و 19 دقيقة قبل الساعة 17:00UTC
التوقعات صالحة من25 الساعة 18 UTC إلى 27 الساعة 00 UTC
ريح 10 عقدة من الجنوب/الجنوب الشرقي
الرؤية 10 كم أو أكثر
غيوم قليلة على ارتفاع 1500 قدم

TAF: WSSS 251700Z 2518/2700 15010KT 9999 FEW015

أرصاد الطقس والتوقعات من أكثر من 4000 مطار (تقارير الطقس للمطار METAR والتنبؤ بالطقس بالمطارTAF).

المحطات المتاحة هي النقط الصفراء والحمراء على الخريطة.

حرك المؤشر فوق النقطة لمعرفة اسم المحطة.

ثم انقر لمعرفة أرصاد وتوقعات الطقس.

لتغيير الخارطة: اضغط على الأزرار الخضراء مع رمز الصليب الأسود للتكبير. على الزر الأخضر مع شرطة للتصغير، أو على الأسهم الخضراء للخرائط المجاورة.


METAR-TAF: